createdAt,value
2022-08-26T00:00:12.654Z,85.80
2022-08-26T00:05:15.702Z,86.00
2022-08-26T00:10:20.441Z,86.20
2022-08-26T00:15:26.099Z,85.50
2022-08-26T00:20:31.652Z,85.30
2022-08-26T00:25:37.901Z,85.00
2022-08-26T00:30:48.256Z,85.00
2022-08-26T00:35:54.824Z,85.40
2022-08-26T00:41:00.574Z,86.90
2022-08-26T00:46:08.463Z,86.10
2022-08-26T00:51:13.830Z,83.60
2022-08-26T00:56:23.921Z,83.20
2022-08-26T01:01:31.095Z,82.80
2022-08-26T01:06:34.651Z,83.80
2022-08-26T01:11:40.605Z,83.30
2022-08-26T01:16:44.374Z,82.20
2022-08-26T01:21:53.307Z,81.10
2022-08-26T01:27:00.367Z,82.80
2022-08-26T01:32:05.142Z,86.90
2022-08-26T01:37:13.767Z,88.60
2022-08-26T01:42:22.257Z,85.60
2022-08-26T01:47:37.568Z,86.60
2022-08-26T01:52:43.136Z,87.80
2022-08-26T01:57:49.838Z,88.00
2022-08-26T02:03:17.701Z,87.90
2022-08-26T02:08:25.526Z,89.60
2022-08-26T02:13:31.421Z,87.90
2022-08-26T02:18:36.092Z,89.30
2022-08-26T02:23:39.645Z,90.10
2022-08-26T02:28:47.726Z,91.00
2022-08-26T02:33:52.179Z,91.20
2022-08-26T02:38:55.589Z,91.10
2022-08-26T02:44:00.375Z,91.20
2022-08-26T02:49:03.807Z,90.60
2022-08-26T02:54:06.994Z,90.50
2022-08-26T02:59:12.641Z,88.60
2022-08-26T03:04:15.772Z,90.50
2022-08-26T03:09:22.263Z,91.40
2022-08-26T03:14:29.142Z,92.40
2022-08-26T03:19:33.025Z,92.20
2022-08-26T03:24:38.418Z,91.20
2022-08-26T03:30:01.711Z,91.70
2022-08-26T03:35:06.640Z,92.20
2022-08-26T03:40:12.529Z,93.30
2022-08-26T03:45:23.775Z,93.30
2022-08-26T03:50:28.420Z,93.80
2022-08-26T03:55:32.676Z,93.30
2022-08-26T04:00:38.104Z,94.00
2022-08-26T04:05:41.415Z,94.70
2022-08-26T04:10:45.109Z,94.70
2022-08-26T04:15:50.741Z,93.50
2022-08-26T04:20:53.905Z,94.10
2022-08-26T04:25:57.782Z,94.50
2022-08-26T04:31:02.543Z,94.40
2022-08-26T04:36:06.498Z,94.20
2022-08-26T04:41:15.339Z,93.90
2022-08-26T04:46:23.106Z,94.40
2022-08-26T04:51:28.540Z,95.30
2022-08-26T04:56:33.940Z,95.40
2022-08-26T05:01:39.709Z,94.80
2022-08-26T05:06:43.006Z,94.80
2022-08-26T05:11:48.404Z,94.40
2022-08-26T05:16:56.325Z,93.90
2022-08-26T05:22:00.254Z,95.00
2022-08-26T05:27:04.083Z,94.70
2022-08-26T05:32:16.147Z,93.70
2022-08-26T05:37:19.493Z,93.40
2022-08-26T05:42:23.595Z,93.40
2022-08-26T05:47:33.564Z,94.50
2022-08-26T05:52:38.190Z,93.60
2022-08-26T05:57:42.891Z,93.90
2022-08-26T06:02:48.904Z,93.80
2022-08-26T06:08:09.928Z,94.40
2022-08-26T06:13:14.156Z,93.30
2022-08-26T06:18:20.618Z,92.50
2022-08-26T06:23:41.834Z,91.30
2022-08-26T06:28:45.888Z,90.70
2022-08-26T06:33:50.623Z,89.10
2022-08-26T06:38:54.051Z,89.60
2022-08-26T06:43:58.223Z,87.60
2022-08-26T06:49:02.748Z,86.40
2022-08-26T06:54:06.998Z,84.40
2022-08-26T06:59:12.866Z,85.10
2022-08-26T07:04:20.245Z,82.70
2022-08-26T07:09:27.797Z,81.70
2022-08-26T07:14:31.784Z,79.90
2022-08-26T07:19:36.862Z,78.60
2022-08-26T07:24:41.185Z,77.90
2022-08-26T07:29:45.993Z,76.30
2022-08-26T07:34:50.599Z,73.80
2022-08-26T07:39:53.736Z,72.80
2022-08-26T07:44:57.309Z,74.60
2022-08-26T07:50:02.560Z,71.60
2022-08-26T07:55:07.154Z,73.40
2022-08-26T08:00:12.329Z,76.40
2022-08-26T08:05:18.867Z,79.00
2022-08-26T08:10:25.225Z,78.60
2022-08-26T08:15:32.142Z,78.70
2022-08-26T08:20:37.358Z,80.70
2022-08-26T08:25:41.587Z,82.10
2022-08-26T08:30:51.557Z,81.40
2022-08-26T08:36:02.603Z,81.80
2022-08-26T08:41:06.276Z,81.30
2022-08-26T08:46:11.536Z,82.70
2022-08-26T08:51:20.744Z,83.00
2022-08-26T08:56:27.308Z,81.90
2022-08-26T09:01:43.498Z,81.60
2022-08-26T09:06:48.778Z,82.40
2022-08-26T09:11:55.105Z,82.20
2022-08-26T09:17:01.657Z,81.10
2022-08-26T09:22:09.534Z,82.30
2022-08-26T09:27:13.357Z,80.40
2022-08-26T09:32:20.791Z,81.70
2022-08-26T09:37:41.148Z,80.90
2022-08-26T09:42:44.869Z,81.70
2022-08-26T09:47:54.245Z,80.70
2022-08-26T09:53:20.890Z,82.50
2022-08-26T09:58:37.932Z,82.80
2022-08-26T10:03:41.616Z,83.20
2022-08-26T10:08:47.672Z,82.60
2022-08-26T10:13:56.797Z,81.90
2022-08-26T10:19:03.522Z,82.60
2022-08-26T10:24:11.389Z,80.90
2022-08-26T10:29:16.903Z,80.60
2022-08-26T10:34:21.251Z,79.20
2022-08-26T10:39:29.673Z,76.50
2022-08-26T10:44:37.474Z,74.80
2022-08-26T10:49:44.364Z,72.50
2022-08-26T10:54:51.434Z,70.10
2022-08-26T10:59:58.178Z,69.20
2022-08-26T11:05:03.481Z,68.90
2022-08-26T11:10:30.679Z,69.90
2022-08-26T11:16:10.741Z,70.70
2022-08-26T11:21:49.543Z,72.50
2022-08-26T11:26:58.486Z,71.30
2022-08-26T11:32:02.636Z,69.80
2022-08-26T11:37:12.988Z,69.40
2022-08-26T11:42:21.373Z,70.40
2022-08-26T11:47:28.879Z,71.00
2022-08-26T11:52:33.251Z,71.10
2022-08-26T11:57:43.311Z,70.20
2022-08-26T12:02:46.718Z,69.60
2022-08-26T12:07:50.854Z,70.60
2022-08-26T12:12:58.319Z,69.00
2022-08-26T12:18:28.893Z,69.70
2022-08-26T12:23:41.883Z,70.90
2022-08-26T12:28:50.491Z,70.70
2022-08-26T12:33:54.692Z,72.90
2022-08-26T12:38:58.598Z,74.80
2022-08-26T12:44:03.611Z,74.80
2022-08-26T12:49:06.802Z,76.30
2022-08-26T12:54:17.983Z,78.70
2022-08-26T12:59:25.159Z,78.70
2022-08-26T13:04:39.780Z,78.60
2022-08-26T13:09:43.146Z,79.40
2022-08-26T13:14:48.708Z,80.60
2022-08-26T13:19:51.921Z,80.70
2022-08-26T13:24:57.965Z,79.80
2022-08-26T13:30:03.967Z,80.00
2022-08-26T13:35:08.643Z,79.60
2022-08-26T13:40:14.400Z,78.60
2022-08-26T13:45:22.369Z,78.30
2022-08-26T13:50:25.229Z,79.10
2022-08-26T13:55:28.748Z,80.00
2022-08-26T14:00:33.481Z,79.70
2022-08-26T14:05:36.952Z,79.70
2022-08-26T14:10:40.255Z,79.70
2022-08-26T14:15:45.089Z,79.60
2022-08-26T14:20:51.828Z,79.10
2022-08-26T14:25:55.630Z,77.80
2022-08-26T14:31:00.504Z,78.10
2022-08-26T14:36:18.076Z,78.90
2022-08-26T14:41:21.217Z,79.10
2022-08-26T14:46:28.239Z,79.10
2022-08-26T14:51:31.722Z,77.70
2022-08-26T14:56:35.578Z,79.20
2022-08-26T15:01:40.828Z,77.70
2022-08-26T15:06:44.829Z,76.00
2022-08-26T15:11:48.600Z,75.80
2022-08-26T15:16:55.880Z,75.90
2022-08-26T15:22:00.353Z,76.50
2022-08-26T15:27:03.938Z,77.30
2022-08-26T15:32:08.811Z,77.60
2022-08-26T15:37:12.138Z,77.20
2022-08-26T15:42:15.447Z,78.90
2022-08-26T15:47:22.333Z,78.80
2022-08-26T15:52:26.246Z,78.60
2022-08-26T15:57:29.593Z,78.70
2022-08-26T16:02:35.319Z,80.20
2022-08-26T16:07:40.535Z,80.80
2022-08-26T16:12:43.661Z,80.70
2022-08-26T16:17:48.404Z,81.10
2022-08-26T16:22:51.510Z,81.10
2022-08-26T16:27:56.051Z,81.80
2022-08-26T16:33:00.941Z,82.50
2022-08-26T16:38:04.364Z,81.90
2022-08-26T16:43:07.432Z,82.30
2022-08-26T16:48:12.213Z,82.90
2022-08-26T16:53:15.481Z,82.90
2022-08-26T16:58:21.950Z,83.30
2022-08-26T17:03:27.630Z,84.00
2022-08-26T17:08:31.023Z,84.60
2022-08-26T17:13:36.104Z,84.30
2022-08-26T17:18:41.163Z,83.90
2022-08-26T17:23:44.680Z,89.90
2022-08-26T17:28:47.926Z,99.90
2022-08-26T17:33:53.720Z,99.90
2022-08-26T17:38:57.978Z,99.90
2022-08-26T17:44:02.353Z,99.90
2022-08-26T17:49:08.558Z,99.90
2022-08-26T17:54:11.941Z,99.90
2022-08-26T17:59:15.238Z,99.90
2022-08-26T18:04:20.414Z,99.90
2022-08-26T18:09:23.915Z,99.90
2022-08-26T18:14:27.497Z,99.90
2022-08-26T18:19:32.064Z,99.90
2022-08-26T18:24:35.446Z,99.90
2022-08-26T18:29:45.631Z,99.90
2022-08-26T18:34:54.466Z,99.90
2022-08-26T18:39:59.512Z,99.90
2022-08-26T18:45:05.719Z,99.90
2022-08-26T18:50:47.433Z,99.90
2022-08-26T18:55:53.850Z,99.90
2022-08-26T19:01:00.752Z,99.90
2022-08-26T19:06:06.939Z,99.90
2022-08-26T19:11:13.869Z,99.90
2022-08-26T19:16:30.920Z,99.90
2022-08-26T19:21:39.592Z,99.90
2022-08-26T19:27:03.235Z,99.90
2022-08-26T19:32:08.782Z,99.90
2022-08-26T19:37:30.037Z,99.90
2022-08-26T19:42:33.827Z,99.90
2022-08-26T19:47:39.286Z,99.90
2022-08-26T19:52:45.082Z,99.90
2022-08-26T19:57:56.718Z,99.90
2022-08-26T20:03:31.642Z,99.40
